createdAt,value
2023-04-30T00:00:35.758Z,89.9
2023-04-30T00:06:32.997Z,89.8
2023-04-30T00:12:26.474Z,104.8
2023-04-30T00:18:18.604Z,94.7
2023-04-30T00:24:12.201Z,102.1
2023-04-30T00:30:04.796Z,97.9
2023-04-30T00:35:57.886Z,116.1
2023-04-30T00:41:50.892Z,103.4
2023-04-30T00:47:47.073Z,104.8
2023-04-30T00:53:40.621Z,104.2
2023-04-30T00:59:32.776Z,105.8
2023-04-30T01:05:25.904Z,104.2
2023-04-30T01:11:18.878Z,102.4
2023-04-30T01:17:27.497Z,106.8
2023-04-30T01:23:38.132Z,104.4
2023-04-30T01:29:55.054Z,98
2023-04-30T01:36:09.348Z,107.5
2023-04-30T01:42:17.873Z,103.7
2023-04-30T01:48:32.222Z,105.4
2023-04-30T01:54:29.672Z,104
2023-04-30T02:00:20.318Z,106.1
2023-04-30T02:06:32.544Z,106.7
2023-04-30T02:12:38.166Z,108.1
2023-04-30T02:18:46.661Z,105.4
2023-04-30T02:24:55.717Z,105.9
2023-04-30T02:31:17.448Z,104.7
2023-04-30T02:37:21.687Z,108.5
2023-04-30T02:43:20.682Z,104.3
2023-04-30T02:49:17.893Z,106.1
2023-04-30T02:55:11.460Z,110.4
2023-04-30T03:01:06.749Z,106.2
2023-04-30T03:07:02.417Z,99.1
2023-04-30T03:13:03.655Z,99.8
2023-04-30T03:31:38.037Z,92.7
2023-04-30T03:37:50.532Z,96.9
2023-04-30T03:43:45.969Z,99.5
2023-04-30T03:50:08.963Z,87.6
2023-04-30T03:56:06.886Z,101
2023-04-30T04:02:04.223Z,86.7
2023-04-30T04:08:13.218Z,82.9
2023-04-30T04:14:14.059Z,123.7
2023-04-30T04:20:06.042Z,95.1
2023-04-30T04:32:00.479Z,78.8
2023-04-30T04:38:03.700Z,76.9
2023-04-30T04:44:08.386Z,78.5
2023-04-30T04:50:10.269Z,76.1
2023-04-30T04:56:02.624Z,81.2
2023-04-30T05:01:55.543Z,77.9
2023-04-30T05:07:48.502Z,79.8
2023-04-30T05:13:53.061Z,76.6
2023-04-30T05:20:12.709Z,84.2
2023-04-30T05:26:38.712Z,85.6
2023-04-30T05:33:02.717Z,115.7
2023-04-30T05:45:23.473Z,120
2023-04-30T05:51:17.731Z,120.8
2023-04-30T05:57:09.413Z,128.5
2023-04-30T06:10:25.593Z,143.2
2023-04-30T06:23:25.057Z,175.9
2023-04-30T06:29:17.246Z,130.4
2023-04-30T06:35:09.260Z,140.5
2023-04-30T06:41:01.481Z,277
2023-04-30T06:46:53.941Z,146.9
2023-04-30T06:52:52.383Z,204.7
2023-04-30T06:58:45.740Z,162.2
2023-04-30T07:04:41.917Z,150.6
2023-04-30T07:10:54.810Z,155.1
2023-04-30T07:17:18.134Z,131.7
2023-04-30T07:23:12.522Z,125.3
2023-04-30T07:29:25.340Z,110.6
2023-04-30T07:35:34.306Z,106.4
2023-04-30T07:48:16.552Z,102
2023-04-30T07:54:08.527Z,98.6
2023-04-30T08:00:02.264Z,95.5
2023-04-30T08:05:54.615Z,88.5
2023-04-30T08:11:44.992Z,91.8
2023-04-30T08:17:35.927Z,86.3
2023-04-30T08:23:28.161Z,83.7
2023-04-30T08:29:20.608Z,76.9
2023-04-30T08:35:14.114Z,62.7
2023-04-30T08:41:10.508Z,58.4
2023-04-30T08:47:03.987Z,45.6
2023-04-30T08:52:55.972Z,42.7
2023-04-30T08:58:48.659Z,42.5
2023-04-30T09:04:41.164Z,38.5
2023-04-30T09:10:33.561Z,27.8
2023-04-30T09:16:27.392Z,36.5
2023-04-30T09:22:21.020Z,24.6
2023-04-30T09:28:14.585Z,21.5
2023-04-30T09:34:12.568Z,16.5
2023-04-30T09:40:07.137Z,16
2023-04-30T09:45:59.290Z,13.6
2023-04-30T09:51:51.002Z,9.3
2023-04-30T09:57:44.028Z,8.9
2023-04-30T10:03:36.430Z,8.5
2023-04-30T10:09:28.050Z,2.4
2023-04-30T10:15:20.379Z,1.8
2023-04-30T10:21:13.269Z,0.8
2023-04-30T10:27:04.532Z,1
2023-04-30T10:32:55.089Z,1.1
2023-04-30T10:38:50.438Z,0.6
2023-04-30T10:44:42.232Z,1
2023-04-30T10:50:34.426Z,0.5
2023-04-30T10:56:26.015Z,2
2023-04-30T11:02:17.798Z,0.9
2023-04-30T11:08:10.144Z,0.9
2023-04-30T11:14:01.085Z,0.8
2023-04-30T11:19:55.533Z,0.7
2023-04-30T11:25:47.625Z,0.7
2023-04-30T11:31:39.869Z,8
2023-04-30T11:37:40.335Z,41.6
2023-04-30T11:43:34.235Z,0.6
2023-04-30T11:49:26.920Z,2.1
2023-04-30T11:55:23.222Z,1.1
2023-04-30T12:01:13.940Z,1.2
2023-04-30T12:07:04.632Z,5.5
2023-04-30T12:12:58.391Z,1.7
2023-04-30T12:18:48.132Z,2.5
2023-04-30T12:24:42.649Z,1.6
2023-04-30T12:30:34.030Z,0.9
2023-04-30T12:36:26.432Z,0.7
2023-04-30T12:42:18.106Z,1.4
2023-04-30T12:48:10.465Z,1.2
2023-04-30T12:54:02.299Z,1.2
2023-04-30T12:59:55.704Z,0.6
2023-04-30T13:05:48.111Z,1.8
2023-04-30T13:11:39.961Z,1.5
2023-04-30T13:17:32.024Z,2.1
2023-04-30T13:23:25.093Z,2.2
2023-04-30T13:29:16.887Z,2
2023-04-30T13:35:09.283Z,1.3
2023-04-30T13:41:01.708Z,0.7
2023-04-30T13:46:53.188Z,1.4
2023-04-30T13:52:44.686Z,1.3
2023-04-30T13:58:38.183Z,1.3
2023-04-30T14:04:29.500Z,1
2023-04-30T14:10:20.892Z,1.7
2023-04-30T14:16:13.067Z,3
2023-04-30T14:22:04.965Z,0.9
2023-04-30T14:27:56.527Z,1.6
2023-04-30T14:33:49.327Z,1.3
2023-04-30T14:39:40.802Z,1.3
2023-04-30T14:45:33.306Z,1.2
2023-04-30T14:51:24.997Z,0.8
2023-04-30T14:57:16.851Z,1.3
2023-04-30T15:03:10.134Z,0.6
2023-04-30T15:09:02.321Z,0.6
2023-04-30T15:14:54.129Z,1
2023-04-30T15:20:45.947Z,1.5
2023-04-30T15:26:37.661Z,1.7
2023-04-30T15:32:29.527Z,0.8
2023-04-30T15:38:21.702Z,1
2023-04-30T15:44:14.110Z,1.1
2023-04-30T15:50:07.996Z,0.8
2023-04-30T15:55:57.383Z,1.4
2023-04-30T16:01:50.175Z,1
2023-04-30T16:07:45.354Z,0.8
2023-04-30T16:13:38.516Z,1.9
2023-04-30T16:19:30.682Z,0.9
2023-04-30T16:25:22.221Z,2.2
2023-04-30T16:31:14.991Z,1.5
2023-04-30T16:37:07.416Z,1.2
2023-04-30T16:43:01.262Z,1.8
2023-04-30T16:48:57.259Z,1.5
2023-04-30T16:54:56.288Z,2.5
2023-04-30T17:00:48.003Z,1.8
2023-04-30T17:06:39.604Z,2
2023-04-30T17:12:31.990Z,1.2
2023-04-30T17:18:24.400Z,1.1
2023-04-30T17:24:16.008Z,1.1
2023-04-30T17:30:07.585Z,1.3
2023-04-30T17:35:59.568Z,1
2023-04-30T17:41:51.903Z,1.1
2023-04-30T17:47:43.638Z,1.7
2023-04-30T17:53:39.876Z,1.7
2023-04-30T17:59:31.513Z,2
2023-04-30T18:05:28.585Z,1.6
2023-04-30T18:11:21.962Z,1.2
2023-04-30T18:17:14.116Z,1.7
2023-04-30T18:23:05.875Z,2.6
2023-04-30T18:29:00.161Z,2.2
2023-04-30T18:34:51.264Z,1.7
2023-04-30T18:40:44.036Z,3.8
2023-04-30T18:46:36.014Z,2
2023-04-30T18:52:27.353Z,3
2023-04-30T18:58:21.233Z,1.5
2023-04-30T19:04:12.489Z,1.9
2023-04-30T19:10:04.350Z,3.3
2023-04-30T19:15:55.397Z,1.8
2023-04-30T19:21:46.663Z,3.7
2023-04-30T19:27:41.248Z,3
2023-04-30T19:33:32.158Z,1.8
2023-04-30T19:39:27.001Z,3.4
2023-04-30T19:45:17.555Z,2.7
2023-04-30T19:51:09.332Z,2.8
2023-04-30T19:57:03.345Z,3.2
2023-04-30T20:02:56.784Z,3
2023-04-30T20:08:48.925Z,3.1
2023-04-30T20:15:50.304Z,3.8
2023-04-30T20:21:42.599Z,4.4
2023-04-30T20:27:34.326Z,5.1
2023-04-30T20:33:27.321Z,6.3
2023-04-30T20:39:18.313Z,4.8
2023-04-30T20:45:11.147Z,5.2
2023-04-30T20:51:02.969Z,4.7
2023-04-30T20:56:55.905Z,5.5
2023-04-30T21:02:47.391Z,4.5
2023-04-30T21:08:39.291Z,5.9
2023-04-30T21:14:32.389Z,4.9
2023-04-30T21:20:23.652Z,5.4
2023-04-30T21:26:18.006Z,6.7
2023-04-30T21:32:12.407Z,5.4
2023-04-30T21:38:03.160Z,6.6
2023-04-30T21:43:54.709Z,7.5
2023-04-30T21:49:46.798Z,6.9
2023-04-30T21:55:38.998Z,8.3
2023-04-30T22:01:29.678Z,9.4
2023-04-30T22:07:19.872Z,8.5
2023-04-30T22:13:09.027Z,9.1
2023-04-30T22:19:02.521Z,8.9
2023-04-30T22:24:52.753Z,5.1
2023-04-30T22:30:43.958Z,4.8
2023-04-30T22:36:34.932Z,3.3
2023-04-30T22:42:25.937Z,2.9
2023-04-30T22:48:17.211Z,5.1
2023-04-30T22:54:08.815Z,3.5
2023-04-30T23:00:01.644Z,5
2023-04-30T23:05:52.483Z,3.8
2023-04-30T23:11:44.390Z,6.3
2023-04-30T23:17:37.442Z,5.2
2023-04-30T23:23:29.682Z,9.3
2023-04-30T23:29:21.570Z,7
2023-04-30T23:35:13.176Z,5.7
2023-04-30T23:41:05.116Z,5.5
2023-04-30T23:46:57.504Z,4.9
2023-04-30T23:52:48.091Z,4.3
2023-04-30T23:58:40.578Z,4.6
